createdAt,value
2022-10-12T00:00:39.825Z,1.80
2022-10-12T00:03:06.351Z,1.87
2022-10-12T00:05:32.820Z,2.17
2022-10-12T00:07:59.459Z,1.93
2022-10-12T00:10:25.973Z,1.70
2022-10-12T00:12:52.443Z,1.90
2022-10-12T00:15:19.003Z,1.73
2022-10-12T00:17:45.453Z,1.70
2022-10-12T00:20:12.292Z,1.60
2022-10-12T00:22:38.729Z,1.80
2022-10-12T00:25:05.677Z,1.60
2022-10-12T00:27:32.230Z,1.60
2022-10-12T00:29:58.720Z,1.70
2022-10-12T00:32:25.241Z,1.90
2022-10-12T00:34:51.789Z,1.47
2022-10-12T00:37:18.246Z,1.60
2022-10-12T00:39:44.823Z,1.60
2022-10-12T00:42:12.038Z,2.00
2022-10-12T00:44:44.889Z,1.73
2022-10-12T00:47:37.335Z,1.70
2022-10-12T00:50:18.318Z,1.80
2022-10-12T00:53:14.176Z,1.80
2022-10-12T00:55:47.555Z,1.90
2022-10-12T00:58:14.357Z,1.50
2022-10-12T01:00:41.967Z,2.07
2022-10-12T01:03:12.785Z,2.03
2022-10-12T01:05:40.433Z,2.20
2022-10-12T01:08:07.050Z,1.80
2022-10-12T01:10:33.565Z,2.00
2022-10-12T01:13:00.685Z,1.53
2022-10-12T01:15:34.377Z,1.80
2022-10-12T01:18:14.574Z,1.90
2022-10-12T01:20:49.772Z,1.70
2022-10-12T01:23:28.039Z,2.07
2022-10-12T01:26:17.056Z,1.70
2022-10-12T01:29:02.608Z,1.80
2022-10-12T01:31:38.039Z,1.60
2022-10-12T01:34:16.759Z,1.73
2022-10-12T01:36:48.825Z,2.03
2022-10-12T01:39:24.776Z,1.80
2022-10-12T01:41:56.853Z,1.70
2022-10-12T01:44:25.292Z,1.73
2022-10-12T01:46:54.049Z,1.70
2022-10-12T01:49:30.607Z,1.53
2022-10-12T01:52:21.271Z,1.50
2022-10-12T01:55:02.602Z,1.73
2022-10-12T01:57:49.904Z,1.70
2022-10-12T02:00:17.365Z,1.33
2022-10-12T02:02:46.795Z,1.40
2022-10-12T02:05:19.153Z,1.47
2022-10-12T02:07:54.125Z,1.70
2022-10-12T02:10:46.352Z,1.70
2022-10-12T02:13:15.201Z,1.87
2022-10-12T02:15:43.375Z,1.67
2022-10-12T02:18:14.519Z,1.70
2022-10-12T02:20:42.343Z,1.67
2022-10-12T02:23:10.422Z,1.77
2022-10-12T02:25:36.966Z,1.80
2022-10-12T02:28:13.737Z,1.40
2022-10-12T02:31:01.787Z,1.80
2022-10-12T02:33:56.827Z,1.77
2022-10-12T02:36:35.429Z,1.80
2022-10-12T02:39:09.380Z,1.90
2022-10-12T02:41:46.467Z,1.97
2022-10-12T02:44:20.309Z,2.17
2022-10-12T02:46:49.567Z,1.73
2022-10-12T02:49:17.734Z,2.10
2022-10-12T02:51:45.357Z,2.00
2022-10-12T02:54:12.686Z,2.00
2022-10-12T02:56:45.303Z,1.70
2022-10-12T02:59:13.779Z,1.67
2022-10-12T03:01:41.501Z,2.00
2022-10-12T03:04:08.842Z,2.13
2022-10-12T03:06:35.330Z,1.97
2022-10-12T03:09:02.043Z,1.80
2022-10-12T03:11:28.650Z,1.83
2022-10-12T03:13:55.827Z,2.00
2022-10-12T03:16:23.275Z,1.87
2022-10-12T03:18:50.105Z,1.67
2022-10-12T03:21:17.047Z,1.53
2022-10-12T03:23:43.495Z,1.70
2022-10-12T03:26:09.942Z,1.47
2022-10-12T03:28:36.507Z,1.50
2022-10-12T03:31:03.700Z,1.90
2022-10-12T03:33:30.165Z,1.90
2022-10-12T03:35:56.705Z,1.60
2022-10-12T03:38:23.156Z,1.70
2022-10-12T03:40:49.605Z,1.37
2022-10-12T03:43:17.159Z,1.80
2022-10-12T03:45:43.620Z,1.47
2022-10-12T03:48:10.115Z,1.40
2022-10-12T03:50:36.761Z,1.63
2022-10-12T03:53:05.093Z,1.70
2022-10-12T03:55:32.208Z,1.67
2022-10-12T03:57:58.748Z,1.63
2022-10-12T04:00:25.962Z,1.50
2022-10-12T04:02:52.518Z,1.73
2022-10-12T04:05:18.942Z,1.47
2022-10-12T04:07:45.524Z,1.63
2022-10-12T04:10:12.180Z,1.57
2022-10-12T04:12:38.657Z,1.50
2022-10-12T04:15:05.692Z,1.93
2022-10-12T04:17:32.186Z,1.70
2022-10-12T04:19:58.630Z,1.20
2022-10-12T04:22:25.186Z,1.60
2022-10-12T04:24:51.766Z,1.67
2022-10-12T04:27:18.267Z,1.40
2022-10-12T04:29:44.876Z,1.77
2022-10-12T04:32:12.635Z,1.40
2022-10-12T04:34:39.345Z,1.73
2022-10-12T04:37:05.891Z,2.00
2022-10-12T04:39:32.393Z,1.77
2022-10-12T04:41:58.858Z,2.03
2022-10-12T04:44:29.708Z,2.00
2022-10-12T04:46:58.663Z,1.90
2022-10-12T04:49:25.133Z,2.20
2022-10-12T04:51:51.567Z,1.70
2022-10-12T04:54:18.072Z,2.00
2022-10-12T04:56:47.938Z,2.37
2022-10-12T04:59:15.210Z,3.17
2022-10-12T05:01:41.986Z,3.23
2022-10-12T05:04:08.579Z,2.90
2022-10-12T05:06:35.039Z,2.00
2022-10-12T05:09:01.629Z,2.30
2022-10-12T05:11:28.094Z,2.40
2022-10-12T05:13:54.562Z,2.37
2022-10-12T05:16:21.296Z,2.60
2022-10-12T05:18:47.911Z,2.63
2022-10-12T05:21:14.508Z,1.83
2022-10-12T05:23:40.961Z,2.97
2022-10-12T05:27:10.813Z,2.47
2022-10-12T05:29:37.244Z,2.57
2022-10-12T05:32:03.845Z,2.90
2022-10-12T05:34:30.234Z,2.80
2022-10-12T05:36:58.157Z,2.67
2022-10-12T05:39:24.824Z,2.77
2022-10-12T05:41:54.134Z,2.00
2022-10-12T05:44:20.846Z,2.53
2022-10-12T05:46:47.229Z,2.60
2022-10-12T05:49:13.673Z,2.13
2022-10-12T05:51:40.684Z,2.07
2022-10-12T05:54:07.196Z,3.10
2022-10-12T05:56:33.572Z,2.70
2022-10-12T05:59:00.009Z,2.17
2022-10-12T06:01:26.461Z,2.27
2022-10-12T06:03:54.685Z,2.60
2022-10-12T06:06:21.924Z,2.30
2022-10-12T06:08:48.485Z,2.23
2022-10-12T06:11:14.980Z,2.00
2022-10-12T06:13:41.397Z,2.63
2022-10-12T06:16:07.862Z,2.63
2022-10-12T06:18:34.351Z,2.73
2022-10-12T06:23:47.236Z,2.57
2022-10-12T06:26:13.789Z,2.90
2022-10-12T06:28:40.238Z,2.53
2022-10-12T06:31:06.782Z,3.07
2022-10-12T06:33:33.218Z,2.87
2022-10-12T06:35:59.604Z,3.10
2022-10-12T06:38:26.103Z,3.20
2022-10-12T06:40:53.525Z,3.17
2022-10-12T06:43:22.619Z,3.00
2022-10-12T06:45:49.695Z,3.40
2022-10-12T06:48:18.671Z,4.60
2022-10-12T06:50:47.101Z,4.20
2022-10-12T06:53:13.547Z,4.77
2022-10-12T06:55:40.364Z,5.40
2022-10-12T06:58:06.772Z,4.50
2022-10-12T07:00:33.204Z,4.00
2022-10-12T07:02:59.655Z,3.90
2022-10-12T07:05:26.136Z,4.57
2022-10-12T07:07:52.624Z,4.00
2022-10-12T07:10:19.221Z,4.33
2022-10-12T07:12:45.702Z,3.80
2022-10-12T07:15:12.305Z,4.10
2022-10-12T07:17:39.120Z,3.80
2022-10-12T07:20:06.189Z,4.67
2022-10-12T07:22:33.084Z,5.23
2022-10-12T07:24:59.630Z,8.10
2022-10-12T07:27:26.140Z,5.17
2022-10-12T07:29:52.646Z,4.47
2022-10-12T07:32:19.079Z,5.07
2022-10-12T07:34:45.611Z,4.87
2022-10-12T07:37:12.623Z,4.60
2022-10-12T07:39:41.412Z,4.63
2022-10-12T07:42:08.154Z,4.37
2022-10-12T07:44:34.756Z,4.17
2022-10-12T07:47:01.439Z,4.73
2022-10-12T07:49:27.976Z,4.93
2022-10-12T07:51:54.420Z,4.10
2022-10-12T07:54:25.611Z,4.30
2022-10-12T07:56:55.621Z,4.10
2022-10-12T07:59:22.293Z,5.10
2022-10-12T08:01:48.845Z,4.80
2022-10-12T08:04:15.401Z,4.80
2022-10-12T08:06:43.805Z,4.67
2022-10-12T08:09:10.315Z,4.77
2022-10-12T08:11:41.044Z,4.70
2022-10-12T08:14:13.736Z,4.03
2022-10-12T08:16:42.155Z,3.77
2022-10-12T08:19:08.742Z,3.63
2022-10-12T08:21:35.339Z,3.73
2022-10-12T08:24:01.830Z,3.40
2022-10-12T08:26:29.189Z,2.83
2022-10-12T08:28:56.952Z,2.90
2022-10-12T08:31:23.604Z,3.23
2022-10-12T08:33:50.218Z,4.00
2022-10-12T08:36:16.826Z,4.70
2022-10-12T08:38:43.848Z,4.40
2022-10-12T08:41:22.723Z,3.90
2022-10-12T08:43:58.269Z,2.90
2022-10-12T08:46:26.756Z,5.17
2022-10-12T08:49:13.086Z,2.97
2022-10-12T08:51:51.968Z,1.97
2022-10-12T08:54:27.176Z,2.60
2022-10-12T08:56:54.907Z,2.50
2022-10-12T08:59:23.245Z,2.37
2022-10-12T09:02:29.675Z,2.10
2022-10-12T09:05:18.335Z,2.53
2022-10-12T09:08:10.996Z,2.10
2022-10-12T09:10:59.601Z,2.60
2022-10-12T09:13:42.935Z,2.40
2022-10-12T09:16:25.325Z,2.33
2022-10-12T09:18:58.743Z,2.07
2022-10-12T09:21:33.393Z,2.50
2022-10-12T09:24:25.130Z,2.47
2022-10-12T09:27:13.625Z,2.70
2022-10-12T09:29:47.326Z,2.50
2022-10-12T09:32:36.528Z,2.87
2022-10-12T09:35:06.405Z,2.53
2022-10-12T09:37:35.504Z,2.87
2022-10-12T09:40:05.026Z,3.40
2022-10-12T09:42:34.057Z,3.63
2022-10-12T09:45:21.558Z,3.37
2022-10-12T09:48:47.871Z,3.70
2022-10-12T09:51:16.578Z,3.47
2022-10-12T09:54:05.403Z,4.00
2022-10-12T09:57:07.534Z,4.10
2022-10-12T09:59:42.808Z,4.33
2022-10-12T10:02:23.013Z,4.17
2022-10-12T10:04:54.580Z,4.17
2022-10-12T10:07:35.797Z,5.03
2022-10-12T10:10:32.000Z,6.77
2022-10-12T10:13:06.304Z,6.97
2022-10-12T10:15:39.271Z,6.80
2022-10-12T10:18:23.810Z,6.60
2022-10-12T10:21:17.662Z,7.20
2022-10-12T10:24:00.996Z,7.40
2022-10-12T10:26:56.723Z,6.07
2022-10-12T10:29:28.531Z,5.70
2022-10-12T10:32:12.873Z,6.70
2022-10-12T10:34:41.848Z,4.70
2022-10-12T10:37:19.665Z,3.97
2022-10-12T10:39:49.769Z,5.07
2022-10-12T10:42:20.591Z,4.33
2022-10-12T10:44:58.542Z,6.10
2022-10-12T10:47:25.411Z,5.40
2022-10-12T10:49:57.229Z,5.27
2022-10-12T10:52:33.274Z,4.67
2022-10-12T10:55:19.115Z,5.17
2022-10-12T10:58:03.501Z,4.57
2022-10-12T11:00:39.139Z,5.40
2022-10-12T11:03:52.343Z,4.30
2022-10-12T11:06:24.934Z,5.07
2022-10-12T11:09:00.356Z,5.40
2022-10-12T11:11:31.228Z,5.40
2022-10-12T11:14:42.734Z,22.70
2022-10-12T11:17:31.256Z,6.53
2022-10-12T11:20:20.055Z,6.10
2022-10-12T11:23:10.530Z,6.77
2022-10-12T11:25:49.305Z,6.50
2022-10-12T11:28:16.498Z,5.67
2022-10-12T11:30:50.501Z,6.00
2022-10-12T11:33:27.685Z,6.63
2022-10-12T11:35:55.313Z,6.43
2022-10-12T11:38:37.742Z,5.83
2022-10-12T11:41:34.500Z,6.30
2022-10-12T11:44:03.850Z,5.67
2022-10-12T11:46:48.924Z,6.60
2022-10-12T11:49:37.139Z,5.43
2022-10-12T11:52:09.948Z,5.80
2022-10-12T11:55:06.429Z,5.73
2022-10-12T11:57:37.897Z,6.10
2022-10-12T12:00:19.426Z,6.20
2022-10-12T12:02:54.446Z,6.27
2022-10-12T12:05:21.255Z,6.27
2022-10-12T12:07:59.309Z,6.73
2022-10-12T12:10:31.117Z,6.80
2022-10-12T12:13:23.033Z,6.20
2022-10-12T12:15:52.596Z,5.90
2022-10-12T12:18:22.090Z,5.80
2022-10-12T12:20:48.579Z,5.33
2022-10-12T12:23:54.460Z,6.13
2022-10-12T12:26:26.932Z,6.07
2022-10-12T12:29:26.542Z,5.80
2022-10-12T12:32:01.661Z,5.87
2022-10-12T12:34:28.760Z,5.17
2022-10-12T12:36:55.335Z,5.60
2022-10-12T12:39:26.229Z,5.40
2022-10-12T12:42:01.679Z,5.57
2022-10-12T12:44:37.991Z,6.10
2022-10-12T12:47:26.144Z,5.53
2022-10-12T12:50:00.959Z,5.43
2022-10-12T12:52:34.686Z,5.33
2022-10-12T12:55:16.434Z,6.13
2022-10-12T12:58:20.676Z,6.20
2022-10-12T13:01:09.016Z,6.00
2022-10-12T13:04:09.760Z,6.87
2022-10-12T13:07:06.431Z,6.60
2022-10-12T13:09:47.183Z,6.83
2022-10-12T13:12:28.905Z,6.50
2022-10-12T13:15:18.582Z,5.63
2022-10-12T13:18:18.687Z,6.07
2022-10-12T13:20:57.519Z,5.90
2022-10-12T13:23:27.087Z,5.90
2022-10-12T13:25:59.025Z,5.90
2022-10-12T13:28:29.810Z,5.93
2022-10-12T13:31:04.455Z,6.53
2022-10-12T13:33:40.697Z,6.47
2022-10-12T13:36:23.629Z,6.93
2022-10-12T13:38:56.061Z,6.40
2022-10-12T13:41:25.500Z,6.77
2022-10-12T13:43:58.353Z,7.83
2022-10-12T13:46:44.627Z,8.47
2022-10-12T13:49:29.436Z,8.50
2022-10-12T13:52:15.825Z,8.67
2022-10-12T13:54:47.399Z,8.63
2022-10-12T13:57:19.859Z,9.77
2022-10-12T13:59:49.884Z,9.43
2022-10-12T14:02:21.551Z,10.20
2022-10-12T14:04:48.049Z,9.30
2022-10-12T14:07:32.125Z,9.63
2022-10-12T14:10:05.909Z,9.77
2022-10-12T14:12:34.946Z,9.10
2022-10-12T14:15:02.674Z,9.50
2022-10-12T14:17:30.217Z,9.20
2022-10-12T14:20:13.770Z,8.33
2022-10-12T14:22:47.238Z,9.27
2022-10-12T14:25:20.338Z,9.03
2022-10-12T14:27:57.600Z,8.47
2022-10-12T14:30:28.741Z,8.57
2022-10-12T14:33:17.026Z,8.83
2022-10-12T14:35:46.620Z,9.17
2022-10-12T14:38:38.325Z,8.87
2022-10-12T14:41:29.777Z,8.07
2022-10-12T14:44:17.632Z,8.60
2022-10-12T14:46:52.410Z,9.30
2022-10-12T14:49:22.492Z,8.90
2022-10-12T14:51:50.493Z,9.37
2022-10-12T14:54:16.925Z,8.77
2022-10-12T14:56:43.393Z,8.53
2022-10-12T14:59:09.922Z,8.83
2022-10-12T15:01:40.945Z,9.07
2022-10-12T15:04:12.745Z,8.87
2022-10-12T15:06:39.754Z,9.50
2022-10-12T15:09:06.299Z,8.50
2022-10-12T15:11:32.873Z,8.10
2022-10-12T15:13:59.418Z,9.13
2022-10-12T15:16:28.608Z,8.70
2022-10-12T15:18:55.062Z,9.93
2022-10-12T15:21:21.529Z,9.13
2022-10-12T15:23:48.025Z,8.80
2022-10-12T15:26:17.608Z,8.60
2022-10-12T15:28:45.114Z,8.80
2022-10-12T15:31:18.561Z,8.53
2022-10-12T15:33:45.770Z,9.33
2022-10-12T15:36:12.269Z,9.03
2022-10-12T15:38:39.088Z,8.63
2022-10-12T15:41:05.865Z,8.10
2022-10-12T15:43:33.764Z,9.03
2022-10-12T15:46:02.217Z,8.03
2022-10-12T15:48:29.000Z,8.67
2022-10-12T15:50:55.691Z,8.87
2022-10-12T15:53:24.713Z,8.17
2022-10-12T15:55:55.681Z,8.27
2022-10-12T15:58:22.400Z,8.10
2022-10-12T16:00:49.530Z,8.97
2022-10-12T16:03:24.585Z,8.63
2022-10-12T16:05:51.913Z,7.80
2022-10-12T16:08:18.412Z,7.93
2022-10-12T16:10:46.085Z,8.47
2022-10-12T16:13:13.882Z,8.07
2022-10-12T16:15:41.771Z,8.50
2022-10-12T16:18:08.928Z,8.10
2022-10-12T16:20:37.485Z,8.80
2022-10-12T16:23:07.736Z,8.30
2022-10-12T16:25:35.015Z,9.37
2022-10-12T16:28:01.487Z,8.87
2022-10-12T16:30:27.988Z,8.47
2022-10-12T16:32:54.575Z,9.30
2022-10-12T16:35:21.475Z,8.83
2022-10-12T16:37:48.320Z,8.87
2022-10-12T16:40:15.762Z,8.83
2022-10-12T16:42:42.781Z,9.90
2022-10-12T16:45:09.677Z,8.33
2022-10-12T16:47:41.923Z,8.93
2022-10-12T16:50:10.073Z,9.20
2022-10-12T16:52:36.582Z,9.37
2022-10-12T16:55:03.247Z,9.37
2022-10-12T16:57:29.700Z,10.40
2022-10-12T16:59:56.337Z,9.70
2022-10-12T17:02:22.813Z,9.93
2022-10-12T17:04:49.305Z,14.17
2022-10-12T17:07:16.313Z,15.50
2022-10-12T17:09:42.892Z,14.97
2022-10-12T17:12:09.710Z,15.03
2022-10-12T17:14:36.237Z,16.53
2022-10-12T17:17:02.949Z,15.33
2022-10-12T17:19:32.343Z,14.97
2022-10-12T17:22:01.103Z,15.13
2022-10-12T17:24:29.679Z,15.63
2022-10-12T17:26:57.521Z,13.87
2022-10-12T17:29:26.304Z,13.10
2022-10-12T17:31:54.896Z,14.50
2022-10-12T17:34:24.282Z,14.17
2022-10-12T17:36:52.273Z,13.97
2022-10-12T17:39:19.089Z,14.93
2022-10-12T17:41:45.785Z,14.27
2022-10-12T17:44:12.326Z,14.00
2022-10-12T17:46:39.903Z,12.57
2022-10-12T17:49:07.878Z,13.70
2022-10-12T17:51:34.403Z,14.87
2022-10-12T17:54:01.320Z,14.63
2022-10-12T17:56:28.017Z,13.67
2022-10-12T17:59:01.007Z,14.23
2022-10-12T18:01:30.052Z,14.67
2022-10-12T18:04:00.329Z,13.63
2022-10-12T18:06:27.056Z,14.27
2022-10-12T18:08:53.638Z,14.07
2022-10-12T18:11:21.281Z,13.67
2022-10-12T18:13:49.923Z,13.47
2022-10-12T18:16:18.752Z,12.33
2022-10-12T18:18:45.460Z,13.10
2022-10-12T18:21:14.058Z,12.73
2022-10-12T18:23:41.011Z,12.50
2022-10-12T18:26:09.892Z,12.80
2022-10-12T18:28:37.525Z,12.70
2022-10-12T18:31:04.820Z,12.43
2022-10-12T18:33:31.889Z,11.80
2022-10-12T18:36:06.256Z,11.40
2022-10-12T18:38:33.918Z,11.37
2022-10-12T18:41:08.427Z,11.40
2022-10-12T18:43:35.056Z,12.80
2022-10-12T18:46:09.548Z,13.37
2022-10-12T18:48:36.299Z,11.33
2022-10-12T18:51:07.992Z,11.37
2022-10-12T18:53:35.309Z,12.53
2022-10-12T18:56:04.022Z,14.50
2022-10-12T18:58:31.300Z,15.23
2022-10-12T19:00:58.163Z,13.60
2022-10-12T19:03:25.656Z,15.73
2022-10-12T19:05:52.525Z,14.87
2022-10-12T19:08:19.172Z,15.07
2022-10-12T19:10:45.711Z,13.00
2022-10-12T19:13:12.283Z,13.97
2022-10-12T19:15:38.972Z,14.27
2022-10-12T19:18:05.915Z,14.30
2022-10-12T19:20:35.606Z,13.73
2022-10-12T19:23:02.172Z,13.50
2022-10-12T19:25:28.641Z,13.30
2022-10-12T19:27:55.133Z,14.23
2022-10-12T19:30:21.638Z,14.47
2022-10-12T19:32:48.711Z,13.97
2022-10-12T19:35:15.333Z,13.90
2022-10-12T19:37:41.768Z,13.60
2022-10-12T19:40:12.360Z,12.93
2022-10-12T19:42:38.932Z,14.03
2022-10-12T19:45:05.813Z,12.30
2022-10-12T19:47:32.444Z,12.33
2022-10-12T19:49:58.896Z,12.87
2022-10-12T19:52:25.419Z,12.63
2022-10-12T19:54:51.991Z,12.47
2022-10-12T19:57:18.480Z,11.87
2022-10-12T19:59:44.980Z,12.47
2022-10-12T20:02:11.805Z,12.77
2022-10-12T20:04:38.343Z,12.43
2022-10-12T20:07:04.820Z,12.87
2022-10-12T20:09:31.364Z,13.30
2022-10-12T20:11:57.857Z,12.70
2022-10-12T20:14:25.639Z,13.70
2022-10-12T20:16:52.372Z,13.63
2022-10-12T20:19:18.895Z,14.37
2022-10-12T20:21:45.381Z,13.93
2022-10-12T20:24:11.881Z,12.33
2022-10-12T20:26:40.917Z,12.57
2022-10-12T20:29:07.478Z,12.83
2022-10-12T20:31:34.013Z,12.73
2022-10-12T20:34:00.533Z,13.07
2022-10-12T20:36:29.991Z,14.50
2022-10-12T20:38:58.105Z,12.87
2022-10-12T20:41:25.651Z,13.60
2022-10-12T20:44:00.188Z,13.83
2022-10-12T20:46:28.606Z,13.60
2022-10-12T20:48:58.821Z,13.57
2022-10-12T20:51:28.802Z,12.83
2022-10-12T20:53:58.825Z,13.03
2022-10-12T20:56:30.988Z,13.27
2022-10-12T20:58:58.399Z,14.10
2022-10-12T21:01:28.484Z,13.90
2022-10-12T21:03:55.302Z,14.13
2022-10-12T21:06:23.469Z,12.90
2022-10-12T21:08:51.642Z,13.27
2022-10-12T21:11:18.427Z,13.73
2022-10-12T21:13:46.053Z,14.03
2022-10-12T21:16:13.910Z,13.97
2022-10-12T21:18:40.923Z,14.37
2022-10-12T21:21:12.204Z,14.20
2022-10-12T21:23:44.183Z,13.57
2022-10-12T21:26:13.057Z,13.10
2022-10-12T21:28:39.762Z,14.00
2022-10-12T21:31:07.267Z,15.73
2022-10-12T21:33:37.313Z,15.23
2022-10-12T21:36:16.582Z,15.67
2022-10-12T21:38:43.476Z,26.87
2022-10-12T21:41:11.750Z,31.43
2022-10-12T21:43:39.150Z,35.87
2022-10-12T21:46:08.935Z,21.87
2022-10-12T21:48:36.085Z,18.43
2022-10-12T21:51:03.559Z,16.57
2022-10-12T21:53:30.892Z,15.73
2022-10-12T21:55:57.877Z,14.73
2022-10-12T21:58:24.428Z,16.77
2022-10-12T22:00:51.039Z,18.10
2022-10-12T22:03:17.779Z,18.37
2022-10-12T22:05:44.664Z,15.33
2022-10-12T22:08:11.405Z,17.07
2022-10-12T22:10:39.266Z,17.17
2022-10-12T22:13:07.058Z,15.60
2022-10-12T22:15:34.955Z,15.77
2022-10-12T22:18:09.794Z,15.80
2022-10-12T22:20:37.395Z,15.90
2022-10-12T22:23:04.482Z,15.17
2022-10-12T22:25:30.976Z,15.20
2022-10-12T22:28:00.427Z,16.30
2022-10-12T22:30:29.024Z,15.40
2022-10-12T22:32:55.486Z,16.40
2022-10-12T22:35:22.122Z,15.00
2022-10-12T22:37:48.806Z,16.03
2022-10-12T22:40:15.408Z,15.10
2022-10-12T22:42:41.968Z,15.43
2022-10-12T22:45:09.150Z,14.87
2022-10-12T22:47:35.637Z,13.63
2022-10-12T22:50:02.948Z,13.53
2022-10-12T22:52:29.424Z,14.40
2022-10-12T22:54:55.912Z,16.17
2022-10-12T22:57:22.429Z,14.93
2022-10-12T22:59:50.201Z,12.93
2022-10-12T23:02:17.024Z,13.10
2022-10-12T23:04:43.873Z,14.73
2022-10-12T23:07:10.400Z,13.30
2022-10-12T23:09:36.906Z,16.03
2022-10-12T23:12:03.541Z,15.90
2022-10-12T23:14:30.480Z,15.20
2022-10-12T23:16:56.925Z,15.17
2022-10-12T23:19:26.309Z,14.90
2022-10-12T23:21:52.747Z,15.47
2022-10-12T23:24:19.313Z,15.67
2022-10-12T23:26:45.815Z,13.60
2022-10-12T23:29:12.352Z,14.20
2022-10-12T23:31:38.931Z,14.90
2022-10-12T23:34:06.410Z,15.73
2022-10-12T23:36:34.222Z,15.60
2022-10-12T23:39:02.315Z,15.80
2022-10-12T23:41:28.898Z,14.90
2022-10-12T23:43:55.408Z,14.93
2022-10-12T23:46:21.900Z,15.30
2022-10-12T23:48:48.342Z,15.40
2022-10-12T23:51:14.850Z,15.27
2022-10-12T23:53:42.559Z,15.70
2022-10-12T23:56:09.825Z,16.13
2022-10-12T23:58:36.634Z,15.17
